Time;durP1;ratioP1;P1;durP2;ratioP2;P2;SDS_P1;SDS_P2;PMS_P1;PMS_P2;Temp;Humidity;BMP_temperature;BMP_pressure;BME280_temperature;BME280_humidity;BME280_pressure;Samples;Min_cycle;Max_cycle;Signal;HPM_P1;HPM_P2
2021/03/23 00:01:28;;;;;;;3.70;2.35;;;;;;;1.67;51.28;99946.06;1768902;79;21165;-48
2021/03/23 00:03:56;;;;;;;7.25;3.08;;;;;;;1.66;50.42;99947.84;1771226;79;21134;-47
2021/03/23 00:06:26;;;;;;;5.55;2.65;;;;;;;1.65;50.19;99939.52;1768485;79;21106;-46
2021/03/23 00:08:57;;;;;;;6.08;2.87;;;;;;;1.63;50.51;99948.36;1750134;79;21147;-46
2021/03/23 00:11:31;;;;;;;7.87;3.93;;;;;;;1.59;50.63;99941.03;1770608;79;21194;-45
2021/03/23 00:14:01;;;;;;;5.00;2.70;;;;;;;1.57;50.21;99944.62;1771820;79;21147;-44
2021/03/23 00:16:32;;;;;;;5.78;3.22;;;;;;;1.53;50.50;99941.66;1761722;79;21162;-44
2021/03/23 00:19:00;;;;;;;5.08;3.35;;;;;;;1.48;50.50;99943.96;1768222;79;21177;-44
2021/03/23 00:21:28;;;;;;;7.80;3.40;;;;;;;1.46;50.56;99945.80;1776147;79;21169;-45
2021/03/23 00:23:56;;;;;;;3.52;1.70;;;;;;;1.44;50.61;99950.69;1737117;81;21136;-44
2021/03/23 00:26:24;;;;;;;4.97;2.77;;;;;;;1.40;50.20;99956.93;1740568;81;21161;-46
2021/03/23 00:28:54;;;;;;;3.35;2.47;;;;;;;1.38;49.98;99954.80;1759274;79;22188;-46
2021/03/23 00:31:29;;;;;;;4.75;2.52;;;;;;;1.36;50.27;99960.55;1742499;80;21145;-46
2021/03/23 00:34:03;;;;;;;4.00;2.45;;;;;;;1.34;50.13;99959.30;1753609;79;21173;-43
2021/03/23 00:36:35;;;;;;;4.60;2.20;;;;;;;1.33;50.22;99958.02;1749201;79;21147;-44
2021/03/23 00:39:05;;;;;;;3.72;2.08;;;;;;;1.29;50.42;99954.63;1757967;80;21147;-44
2021/03/23 00:41:35;;;;;;;5.70;1.60;;;;;;;1.30;50.53;99959.81;1754879;80;21108;-46
2021/03/23 00:44:09;;;;;;;4.47;2.47;;;;;;;1.29;50.48;99958.56;1757255;79;21148;-44
2021/03/23 00:46:37;;;;;;;4.15;1.72;;;;;;;1.27;50.13;99964.31;1733370;81;21143;-46
2021/03/23 00:49:05;;;;;;;4.67;1.92;;;;;;;1.26;50.23;99956.00;1738625;82;21608;-45
2021/03/23 00:51:33;;;;;;;3.27;1.67;;;;;;;1.27;50.10;99960.37;1730956;81;21147;-45
2021/03/23 00:54:01;;;;;;;6.03;1.50;;;;;;;1.27;49.99;99954.66;1712160;81;21323;-44
2021/03/23 00:56:29;;;;;;;3.45;1.55;;;;;;;1.26;50.11;99956.00;1738365;81;21153;-43
2021/03/23 00:58:56;;;;;;;3.25;1.62;;;;;;;1.22;49.96;99955.70;1764529;79;21658;-42
2021/03/23 01:01:24;;;;;;;4.05;1.90;;;;;;;1.16;50.39;99957.17;1735760;81;21160;-43
2021/03/23 01:03:53;;;;;;;3.12;1.57;;;;;;;1.13;50.44;99957.27;1736835;81;21156;-45
2021/03/23 01:06:21;;;;;;;4.05;1.95;;;;;;;1.09;50.71;99957.81;1737353;81;21168;-46
2021/03/23 01:08:48;;;;;;;3.72;1.62;;;;;;;1.03;50.55;99952.28;1757797;79;21128;-45
2021/03/23 01:11:16;;;;;;;5.10;2.05;;;;;;;1.00;51.10;99951.48;1757189;80;21339;-46
2021/03/23 01:13:43;;;;;;;5.70;2.10;;;;;;;1.00;50.98;99947.09;1740928;81;21556;-45
2021/03/23 01:16:11;;;;;;;5.10;1.98;;;;;;;0.99;51.02;99948.01;1736817;81;21180;-45
2021/03/23 01:18:40;;;;;;;3.92;1.87;;;;;;;1.01;51.21;99947.98;1740774;81;21109;-46
2021/03/23 01:21:07;;;;;;;4.78;2.25;;;;;;;1.00;51.36;99948.41;1754408;79;21164;-45
2021/03/23 01:23:35;;;;;;;6.10;2.70;;;;;;;1.02;51.64;99946.60;1731886;81;21129;-46
2021/03/23 01:26:03;;;;;;;5.00;2.72;;;;;;;1.05;51.54;99949.14;1756752;79;21172;-46
2021/03/23 01:28:30;;;;;;;5.87;2.55;;;;;;;1.06;51.54;99949.56;1754909;79;21159;-48
2021/03/23 01:30:59;;;;;;;6.62;3.40;;;;;;;1.13;51.46;99949.38;1754312;79;21140;-46
2021/03/23 01:33:26;;;;;;;6.37;3.00;;;;;;;1.15;51.50;99954.14;1758632;80;21151;-46
2021/03/23 01:35:55;;;;;;;7.00;2.75;;;;;;;1.19;51.65;99951.85;1733008;81;21751;-48
2021/03/23 01:38:22;;;;;;;8.33;4.03;;;;;;;1.18;51.79;99955.36;1763664;79;21118;-46
2021/03/23 01:40:50;;;;;;;11.10;4.17;;;;;;;1.12;51.96;99952.92;1734343;81;21148;-43
2021/03/23 01:43:26;;;;;;;10.05;5.00;;;;;;;1.06;52.15;99954.81;1737575;82;21565;-42
2021/03/23 01:45:56;;;;;;;7.17;4.17;;;;;;;1.04;52.33;99957.94;1744900;80;21141;-49
2021/03/23 01:48:32;;;;;;;8.27;4.27;;;;;;;1.02;52.60;99953.17;1740998;80;21108;-50
2021/03/23 01:51:05;;;;;;;5.83;3.15;;;;;;;0.99;52.85;99957.66;1744020;80;21166;-42
2021/03/23 01:53:40;;;;;;;6.72;3.10;;;;;;;0.94;53.01;99947.73;1745561;80;21560;-45
2021/03/23 01:56:09;;;;;;;6.08;3.25;;;;;;;0.91;53.16;99953.05;1738131;80;21125;-44
2021/03/23 01:58:39;;;;;;;6.83;3.37;;;;;;;0.89;53.15;99955.73;1750672;80;21133;-46
2021/03/23 02:01:10;;;;;;;7.15;3.90;;;;;;;0.90;53.21;99955.27;1743094;81;21128;-43
2021/03/23 02:03:39;;;;;;;6.17;3.47;;;;;;;0.86;53.36;99953.19;1766897;79;21142;-44
2021/03/23 02:06:37;;;;;;;5.10;2.60;;;;;;;0.84;53.65;99954.99;1744545;81;21289;-44
2021/03/23 02:09:12;;;;;;;6.37;3.47;;;;;;;0.77;53.63;99963.93;1744216;80;21148;-45
2021/03/23 02:11:52;;;;;;;4.83;2.60;;;;;;;0.68;53.85;99964.16;1747064;81;21591;-47
2021/03/23 02:14:22;;;;;;;5.85;2.67;;;;;;;0.59;54.00;99963.96;1748111;80;21157;-45
2021/03/23 02:16:49;;;;;;;5.10;2.77;;;;;;;0.54;54.03;99963.22;1746438;81;21144;-45
2021/03/23 02:19:23;;;;;;;7.50;2.87;;;;;;;0.53;54.17;99968.03;1768498;79;21595;-41
2021/03/23 02:21:51;;;;;;;5.75;3.17;;;;;;;0.53;54.37;99964.98;1746097;80;21547;-43
2021/03/23 02:24:18;;;;;;;7.05;3.10;;;;;;;0.57;54.40;99960.52;1747964;80;21167;-45
2021/03/23 02:26:45;;;;;;;6.47;3.58;;;;;;;0.56;54.39;99958.34;1768850;79;21137;-45
2021/03/23 02:29:17;;;;;;;7.83;3.40;;;;;;;0.59;54.33;99961.34;1763461;79;21628;-42
2021/03/23 02:31:51;;;;;;;5.87;2.98;;;;;;;0.57;54.31;99961.82;1741338;80;21643;-44
2021/03/23 02:34:21;;;;;;;6.08;3.33;;;;;;;0.56;54.29;99960.97;1746779;80;21156;-44
2021/03/23 02:36:50;;;;;;;6.65;2.90;;;;;;;0.58;54.29;99960.48;1749455;80;21108;-45
2021/03/23 02:39:24;;;;;;;5.50;3.10;;;;;;;0.56;54.27;99960.97;1749560;80;21153;-45
2021/03/23 02:41:53;;;;;;;6.77;3.67;;;;;;;0.57;54.31;99963.13;1757273;81;21144;-43
2021/03/23 02:44:21;;;;;;;10.15;4.28;;;;;;;0.58;54.36;99960.48;1738441;80;21288;-44
2021/03/23 02:46:49;;;;;;;7.73;3.87;;;;;;;0.57;54.41;99960.52;1759047;79;21157;-43
2021/03/23 02:49:17;;;;;;;6.97;3.47;;;;;;;0.56;54.43;99967.98;1751435;80;21157;-45
2021/03/23 02:51:49;;;;;;;8.25;4.03;;;;;;;0.54;54.48;99961.91;1751419;81;21151;-44
2021/03/23 02:54:17;;;;;;;6.42;3.98;;;;;;;0.49;54.63;99961.16;1767727;79;21145;-43
2021/03/23 02:56:44;;;;;;;6.37;3.90;;;;;;;0.42;54.73;99968.31;1753634;79;21127;-47
2021/03/23 02:59:15;;;;;;;6.83;3.47;;;;;;;0.36;54.73;99961.47;1739537;80;21182;-48
2021/03/23 03:04:08;;;;;;;8.90;3.65;;;;;;;0.34;55.03;99967.65;1806265;77;22348;-47
2021/03/23 03:06:36;;;;;;;6.03;3.20;;;;;;;0.26;55.21;99968.30;1778649;78;21122;-46
2021/03/23 03:09:04;;;;;;;6.15;3.02;;;;;;;0.23;55.22;99968.34;1723715;81;21175;-46
2021/03/23 03:11:32;;;;;;;5.43;2.87;;;;;;;0.17;55.50;99970.22;1718736;81;21173;-46
2021/03/23 03:13:59;;;;;;;7.00;3.72;;;;;;;0.09;55.64;99966.92;1719847;81;21575;-45
2021/03/23 03:16:27;;;;;;;7.95;3.95;;;;;;;0.05;55.83;99981.03;1689209;83;21158;-44
2021/03/23 03:18:55;;;;;;;6.03;3.12;;;;;;;0.01;55.90;99977.19;1720663;81;21171;-44
2021/03/23 03:21:23;;;;;;;7.22;3.77;;;;;;;-0.03;55.99;99980.31;1689559;83;21578;-44
2021/03/23 03:23:52;;;;;;;5.93;2.70;;;;;;;-0.03;56.22;99976.38;1703872;82;21142;-43
2021/03/23 03:26:20;;;;;;;5.45;2.80;;;;;;;-0.04;56.33;99975.53;1708461;82;21142;-43
2021/03/23 03:28:52;;;;;;;5.93;3.23;;;;;;;-0.06;56.35;99973.38;1677577;82;21164;-43
2021/03/23 03:31:23;;;;;;;9.47;2.90;;;;;;;-0.08;56.51;99973.86;1701479;82;21137;-43
2021/03/23 03:33:53;;;;;;;5.55;3.22;;;;;;;-0.08;56.54;99974.31;1722899;81;21123;-44
2021/03/23 03:36:22;;;;;;;4.33;2.73;;;;;;;-0.09;56.48;99966.05;1722923;81;21167;-42
2021/03/23 03:38:50;;;;;;;5.80;2.90;;;;;;;-0.15;56.64;99973.62;1721729;81;21169;-44
2021/03/23 03:41:18;;;;;;;5.47;2.83;;;;;;;-0.19;56.75;99969.33;1707076;82;21163;-44
2021/03/23 03:43:45;;;;;;;6.30;3.13;;;;;;;-0.23;56.96;99967.66;1702657;82;21165;-46
2021/03/23 03:46:13;;;;;;;6.10;3.23;;;;;;;-0.24;57.04;99967.26;1706947;82;21154;-43
2021/03/23 03:48:41;;;;;;;5.47;3.00;;;;;;;-0.24;56.97;99973.36;1704049;82;21142;-44
2021/03/23 03:51:08;;;;;;;6.75;3.50;;;;;;;-0.26;57.07;99983.00;1704753;82;21186;-48
2021/03/23 03:53:36;;;;;;;5.43;3.20;;;;;;;-0.25;57.14;99978.66;1702878;82;21147;-46
2021/03/23 03:56:04;;;;;;;7.67;3.83;;;;;;;-0.26;57.20;99975.59;1705886;82;21157;-44
2021/03/23 03:58:32;;;;;;;6.40;3.12;;;;;;;-0.26;57.36;99976.91;1704313;82;21143;-46
2021/03/23 04:00:59;;;;;;;6.13;2.93;;;;;;;-0.25;57.36;99979.96;1707177;82;21095;-44
2021/03/23 04:03:29;;;;;;;5.55;2.85;;;;;;;-0.25;57.45;99979.96;1699277;82;21182;-41
2021/03/23 04:05:59;;;;;;;10.23;3.80;;;;;;;-0.22;57.44;99984.67;1680683;83;21184;-42
2021/03/23 04:08:29;;;;;;;7.40;4.27;;;;;;;-0.18;57.50;99985.45;1695094;83;21369;-41
2021/03/23 04:11:03;;;;;;;7.10;3.37;;;;;;;-0.15;57.51;99985.83;1691175;83;21120;-43
2021/03/23 04:13:31;;;;;;;8.90;4.33;;;;;;;-0.12;57.42;99984.48;1686087;83;21172;-44
2021/03/23 04:15:59;;;;;;;5.37;3.30;;;;;;;-0.10;57.50;99986.17;1680551;83;21160;-44
2021/03/23 04:18:28;;;;;;;8.33;3.80;;;;;;;-0.09;57.52;99985.72;1746601;80;21156;-46
2021/03/23 04:20:59;;;;;;;6.33;3.17;;;;;;;-0.10;57.64;99987.48;1748262;80;21158;-46
2021/03/23 04:23:36;;;;;;;7.92;3.37;;;;;;;-0.13;57.59;99985.36;1748415;80;21148;-42
2021/03/23 04:26:06;;;;;;;7.43;4.20;;;;;;;-0.15;57.79;99993.27;1753162;80;21153;-43
2021/03/23 04:28:34;;;;;;;12.47;5.20;;;;;;;-0.20;57.83;99992.52;1746582;80;21149;-40
2021/03/23 04:31:02;;;;;;;8.97;5.10;;;;;;;-0.24;58.00;99992.16;1744547;80;21163;-44
2021/03/23 04:33:30;;;;;;;7.20;3.80;;;;;;;-0.27;58.15;99994.85;1748109;80;21162;-44
2021/03/23 04:36:02;;;;;;;8.83;4.53;;;;;;;-0.28;58.22;99999.23;1708601;82;21536;-43
2021/03/23 04:38:35;;;;;;;8.07;4.83;;;;;;;-0.28;58.16;99990.48;1751740;80;21154;-45
2021/03/23 04:41:07;;;;;;;8.13;4.40;;;;;;;-0.28;58.20;99988.75;1750633;80;21153;-45
2021/03/23 04:43:41;;;;;;;10.80;5.03;;;;;;;-0.28;58.21;99991.38;1746523;80;21130;-45
2021/03/23 04:46:09;;;;;;;10.60;4.43;;;;;;;-0.29;58.21;99992.25;1750086;80;21569;-47
2021/03/23 04:48:37;;;;;;;8.17;4.53;;;;;;;-0.33;58.33;99989.73;1749878;80;21165;-43
2021/03/23 04:51:08;;;;;;;7.57;3.93;;;;;;;-0.37;58.19;99998.56;1745408;80;21126;-44
2021/03/23 04:53:38;;;;;;;6.83;3.23;;;;;;;-0.45;58.34;99994.80;1747444;80;21126;-46
2021/03/23 04:56:07;;;;;;;8.83;4.30;;;;;;;-0.47;58.59;99996.13;1746291;80;21161;-44
2021/03/23 04:58:35;;;;;;;8.03;4.03;;;;;;;-0.45;58.55;99998.28;1746015;80;21134;-44
2021/03/23 05:01:02;;;;;;;6.90;4.60;;;;;;;-0.41;58.59;99995.59;1746349;80;21153;-46
2021/03/23 05:03:32;;;;;;;6.13;4.10;;;;;;;-0.38;58.58;99999.44;1747091;80;21642;-48
2021/03/23 05:08:44;;;;;;;6.70;3.55;;;;;;;-0.28;58.61;99997.92;1798983;78;22953;-45
2021/03/23 05:11:14;;;;;;;7.80;4.05;;;;;;;-0.30;58.39;100008.03;1774049;79;21153;-45
2021/03/23 05:13:42;;;;;;;6.93;3.93;;;;;;;-0.29;58.58;100005.36;1774816;79;21137;-44
2021/03/23 05:16:10;;;;;;;8.77;3.60;;;;;;;-0.27;58.63;100006.64;1780437;78;21178;-46
2021/03/23 05:18:37;;;;;;;7.87;3.60;;;;;;;-0.23;58.34;100005.23;1717814;81;21153;-45
2021/03/23 05:21:06;;;;;;;8.97;3.63;;;;;;;-0.18;58.27;100009.05;1712156;81;21192;-45
2021/03/23 05:23:34;;;;;;;7.20;3.63;;;;;;;-0.14;58.26;100009.41;1719500;81;21574;-45
2021/03/23 05:26:02;;;;;;;8.13;4.20;;;;;;;-0.06;57.97;100014.48;1728256;81;21150;-45
2021/03/23 05:28:29;;;;;;;13.13;3.97;;;;;;;0.02;57.61;100015.61;1716995;81;21160;-45
2021/03/23 05:30:57;;;;;;;7.33;4.00;;;;;;;0.06;57.66;100019.91;1719887;81;21153;-45
2021/03/23 05:33:25;;;;;;;7.87;4.37;;;;;;;0.06;57.27;100022.07;1717880;82;21159;-44
2021/03/23 05:35:56;;;;;;;7.12;3.65;;;;;;;0.11;57.05;100021.52;1716384;81;21189;-44
2021/03/23 05:38:25;;;;;;;7.42;4.00;;;;;;;0.12;57.01;100022.38;1708975;81;21577;-45
2021/03/23 05:41:02;;;;;;;7.43;3.53;;;;;;;0.13;57.14;100025.42;1743403;80;21161;-45
2021/03/23 05:43:41;;;;;;;8.43;3.33;;;;;;;0.16;56.88;100027.97;1703224;82;21179;-44
2021/03/23 05:46:32;;;;;;;7.70;4.03;;;;;;;0.19;57.08;100022.19;1737263;80;21162;-44
2021/03/23 05:49:14;;;;;;;6.40;3.58;;;;;;;0.21;56.60;100021.72;1713477;81;21151;-45
2021/03/23 05:51:49;;;;;;;6.10;3.53;;;;;;;0.23;56.54;100023.00;1748595;80;21146;-46
2021/03/23 05:54:40;;;;;;;12.97;5.40;;;;;;;0.24;56.18;100021.23;1748792;80;21141;-45
2021/03/23 05:57:34;;;;;;;12.85;3.62;;;;;;;0.25;55.86;100017.25;1742780;81;21192;-51
2021/03/23 06:00:07;;;;;;;7.03;3.13;;;;;;;0.27;56.02;100023.33;1739895;81;21177;-46
2021/03/23 06:02:51;;;;;;;5.47;2.93;;;;;;;0.33;55.64;100022.34;1720761;81;21157;-45
2021/03/23 06:05:38;;;;;;;4.90;2.50;;;;;;;0.37;55.86;100020.04;1722836;82;21303;-44
2021/03/23 06:08:25;;;;;;;6.10;3.37;;;;;;;0.40;56.15;100026.09;1709657;82;21145;-45
2021/03/23 06:11:07;;;;;;;8.20;3.23;;;;;;;0.50;55.58;100017.98;1703113;82;21151;-44
2021/03/23 06:13:50;;;;;;;7.03;3.73;;;;;;;0.56;55.23;100020.47;1698621;82;21142;-45
2021/03/23 06:16:39;;;;;;;8.80;4.17;;;;;;;0.61;53.92;100025.16;1703834;82;21525;-45
2021/03/23 06:19:42;;;;;;;8.90;3.10;;;;;;;0.62;54.24;100021.16;1745812;80;21284;-45
2021/03/23 06:22:24;;;;;;;6.35;2.70;;;;;;;0.69;53.82;100022.33;1745799;80;21578;-47
2021/03/23 06:25:18;;;;;;;5.47;2.10;;;;;;;0.74;53.07;100021.77;1745720;80;21158;-47
2021/03/23 06:28:00;;;;;;;6.78;2.70;;;;;;;0.80;53.19;100032.09;1742864;80;21138;-46
2021/03/23 06:31:00;;;;;;;6.10;2.83;;;;;;;0.90;52.18;100028.79;1744288;80;21181;-47
2021/03/23 06:33:29;;;;;;;5.40;2.67;;;;;;;0.88;52.35;100027.96;1707948;82;21581;-57
2021/03/23 06:36:03;;;;;;;6.10;2.55;;;;;;;0.91;51.88;100026.14;1743075;80;21161;-46
2021/03/23 06:38:40;;;;;;;5.90;2.70;;;;;;;0.94;51.85;100029.98;1741734;80;21141;-46
2021/03/23 06:41:18;;;;;;;5.50;2.70;;;;;;;1.00;50.84;100035.06;1741387;80;21110;-45
2021/03/23 06:43:51;;;;;;;5.40;2.17;;;;;;;1.02;50.46;100031.95;1747941;81;21146;-48
2021/03/23 06:46:39;;;;;;;5.28;2.47;;;;;;;1.05;49.32;100031.02;1748056;81;21621;-45
2021/03/23 06:49:24;;;;;;;6.70;2.50;;;;;;;1.07;50.50;100031.84;1747717;81;21094;-43
2021/03/23 06:52:02;;;;;;;6.17;2.58;;;;;;;1.11;49.43;100036.55;1747401;81;21534;-46
2021/03/23 06:54:36;;;;;;;6.53;2.27;;;;;;;1.12;49.57;100035.20;1748036;80;21166;-45
2021/03/23 06:57:18;;;;;;;8.28;2.62;;;;;;;1.18;49.33;100039.42;1746228;80;21110;-45
2021/03/23 07:00:16;;;;;;;4.00;2.52;;;;;;;1.23;48.71;100041.02;1745485;80;21283;-45
2021/03/23 07:02:54;;;;;;;5.78;2.17;;;;;;;1.32;48.38;100039.06;1747528;80;21131;-46
2021/03/23 07:05:35;;;;;;;4.30;1.57;;;;;;;1.41;48.22;100040.99;1748554;80;21264;-46
2021/03/23 07:08:15;;;;;;;3.50;1.87;;;;;;;1.53;46.35;100041.08;1761566;79;21129;-47
2021/03/23 07:10:57;;;;;;;4.78;1.62;;;;;;;1.61;45.07;100037.77;1773827;78;21146;-43
2021/03/23 07:13:35;;;;;;;4.15;1.85;;;;;;;1.66;45.07;100033.70;1776417;78;21609;-46
2021/03/23 07:16:12;;;;;;;4.87;2.30;;;;;;;1.69;44.90;100037.58;1774261;78;21110;-44
2021/03/23 07:19:09;;;;;;;6.62;2.77;;;;;;;1.68;46.14;100035.84;1770338;79;21121;-51
2021/03/23 07:21:55;;;;;;;6.30;1.80;;;;;;;1.68;47.33;100037.16;1774948;79;21145;-44
2021/03/23 07:24:30;;;;;;;5.83;1.70;;;;;;;1.75;47.31;100036.53;1735385;80;21162;-46
2021/03/23 07:27:03;;;;;;;8.68;1.82;;;;;;;1.83;43.89;100041.11;1712965;82;21149;-43
2021/03/23 07:29:34;;;;;;;3.98;1.95;;;;;;;1.87;44.33;100039.66;1715818;82;21147;-44
2021/03/23 07:32:31;;;;;;;3.10;1.62;;;;;;;1.90;44.22;100031.67;1709383;82;21291;-43
2021/03/23 07:35:20;;;;;;;4.58;2.20;;;;;;;1.94;45.46;100025.42;1715188;82;21142;-46
2021/03/23 07:38:05;;;;;;;6.35;2.35;;;;;;;1.86;45.26;100035.29;1709234;82;21303;-43
2021/03/23 07:40:45;;;;;;;6.40;1.98;;;;;;;1.82;47.07;100044.66;1726705;81;21442;-43
2021/03/23 07:43:40;;;;;;;3.40;1.47;;;;;;;1.95;46.82;100038.11;1741229;81;21737;-47
2021/03/23 07:46:14;;;;;;;5.85;2.75;;;;;;;2.09;46.16;100035.05;1738486;80;21149;-42
2021/03/23 07:49:07;;;;;;;2.55;1.20;;;;;;;2.22;45.50;100039.05;1732009;81;21150;-43
2021/03/23 07:51:43;;;;;;;3.33;1.57;;;;;;;2.32;42.10;100041.80;1735122;80;21469;-43
2021/03/23 07:54:37;;;;;;;5.47;1.42;;;;;;;2.42;42.65;100033.16;1736969;80;21648;-44
2021/03/23 07:57:35;;;;;;;2.55;1.40;;;;;;;2.57;42.45;100029.14;1719366;82;22050;-43
2021/03/23 08:00:26;;;;;;;3.52;1.42;;;;;;;2.75;40.43;100027.70;1716605;82;21553;-44
2021/03/23 08:03:28;;;;;;;3.65;1.15;;;;;;;2.73;41.50;100026.42;1708329;82;22278;-47
2021/03/23 08:06:07;;;;;;;5.90;1.60;;;;;;;2.68;40.49;100017.81;1713557;82;21165;-43
2021/03/23 08:09:19;;;;;;;4.75;1.40;;;;;;;2.65;40.07;100021.02;1708680;80;21629;-43
2021/03/23 08:12:15;;;;;;;2.15;1.42;;;;;;;2.65;39.45;100022.34;1763192;79;21163;-45
2021/03/23 08:14:57;;;;;;;4.12;1.32;;;;;;;2.64;38.97;100024.55;1762955;79;21140;-45
2021/03/23 08:17:40;;;;;;;3.25;1.00;;;;;;;2.57;39.89;100023.87;1763149;80;21593;-44
2021/03/23 08:20:46;;;;;;;3.25;1.30;;;;;;;2.55;39.16;100020.46;1764739;79;21115;-44
2021/03/23 08:23:37;;;;;;;2.50;0.90;;;;;;;2.53;39.13;100015.70;1760949;80;21146;-44
2021/03/23 08:26:43;;;;;;;3.95;0.90;;;;;;;2.34;40.54;100028.14;1763592;79;21576;-44
2021/03/23 08:29:30;;;;;;;2.15;0.93;;;;;;;2.33;38.80;100020.28;1766630;79;21127;-44
2021/03/23 08:32:37;;;;;;;2.30;0.57;;;;;;;2.42;38.89;100003.31;1762361;79;21111;-45
2021/03/23 08:35:44;;;;;;;3.05;0.70;;;;;;;2.36;37.15;100013.59;1761314;79;21114;-45
2021/03/23 08:38:34;;;;;;;2.33;0.90;;;;;;;2.36;37.73;100014.45;1763329;79;21122;-44
2021/03/23 08:41:11;;;;;;;1.87;0.70;;;;;;;2.40;37.71;100017.01;1767148;79;21141;-44
2021/03/23 08:43:42;;;;;;;1.87;0.68;;;;;;;2.46;37.51;100014.16;1754883;80;21486;-45
2021/03/23 08:46:26;;;;;;;2.55;1.05;;;;;;;2.49;36.19;100018.86;1761900;80;21579;-45
2021/03/23 08:49:04;;;;;;;3.90;0.80;;;;;;;2.53;38.38;100015.70;1761566;79;21557;-44
2021/03/23 08:51:33;;;;;;;2.47;1.00;;;;;;;2.50;37.36;100010.08;1762600;79;21153;-46
2021/03/23 08:54:06;;;;;;;2.75;1.20;;;;;;;2.53;38.80;100023.13;1759676;79;21597;-46
2021/03/23 08:56:51;;;;;;;1.98;0.82;;;;;;;2.54;37.68;100019.57;1701828;82;21165;-43
2021/03/23 08:59:39;;;;;;;2.35;0.90;;;;;;;2.57;38.02;100012.03;1761878;79;21118;-43
2021/03/23 09:02:13;;;;;;;2.77;0.90;;;;;;;2.57;37.85;100010.71;1763430;79;21118;-43
2021/03/23 09:04:42;;;;;;;4.45;0.80;;;;;;;2.49;38.28;100013.59;1760356;79;21160;-46
2021/03/23 09:07:19;;;;;;;1.80;0.68;;;;;;;2.48;37.64;100018.93;1759871;80;21149;-44
2021/03/23 09:09:53;;;;;;;3.25;1.00;;;;;;;2.47;38.39;100021.14;1759116;79;21351;-45
2021/03/23 09:12:45;;;;;;;4.67;1.60;;;;;;;2.47;39.23;100010.61;1749444;80;21137;-46
2021/03/23 09:15:19;;;;;;;2.12;0.82;;;;;;;2.57;38.91;100012.91;1763549;79;21143;-43
2021/03/23 09:21:57;;;;;;;1.45;0.75;;;;;;;2.85;37.20;99994.88;1763106;79;21112;-42
2021/03/23 09:24:39;;;;;;;2.15;0.80;;;;;;;2.98;37.42;99992.67;1734124;81;22026;-44
2021/03/23 09:27:27;;;;;;;3.20;1.62;;;;;;;3.02;38.22;99991.63;1736419;81;21117;-43
2021/03/23 09:29:55;;;;;;;5.47;1.20;;;;;;;3.03;37.24;100007.86;1727743;81;21155;-46
2021/03/23 09:32:25;;;;;;;4.67;0.82;;;;;;;3.02;37.93;99994.27;1727796;81;21477;-45
2021/03/23 09:35:10;;;;;;;2.77;1.30;;;;;;;3.03;39.30;99985.00;1779965;77;28028;-45
2021/03/23 09:37:58;;;;;;;1.00;0.90;;;;;;;3.00;38.85;99992.16;1766122;79;21133;-45
2021/03/23 09:40:34;;;;;;;4.47;1.07;;;;;;;3.00;37.67;99987.75;1752102;79;21095;-45
2021/03/23 09:43:07;;;;;;;1.95;0.98;;;;;;;2.99;37.22;99971.98;1770391;79;21603;-44
2021/03/23 09:49:46;;;;;;;2.75;1.12;;;;;;;3.07;36.92;99973.88;1581512;89;21629;-42
2021/03/23 09:52:22;;;;;;;2.35;1.00;;;;;;;3.06;37.55;99971.33;1578803;89;21375;-48
2021/03/23 09:55:01;;;;;;;2.72;1.00;;;;;;;3.15;36.41;99965.70;1798433;78;22919;-48
2021/03/23 09:57:32;;;;;;;2.65;0.78;;;;;;;3.19;36.70;99969.95;1795951;77;21264;-45
2021/03/23 10:00:50;;;;;;;2.15;0.78;;;;;;;3.29;37.78;99965.22;1772283;79;21117;-45
2021/03/23 10:10:52;;;;;;;3.33;0.65;;;;;;;3.59;34.79;99955.30;1757388;78;22997;-43
2021/03/23 10:13:29;;;;;;;1.52;0.55;;;;;;;3.63;33.33;99964.36;1713275;82;21149;-43
2021/03/23 10:16:00;;;;;;;2.02;0.57;;;;;;;3.64;34.81;99955.98;1710484;82;21156;-42
2021/03/23 10:18:30;;;;;;;1.80;0.70;;;;;;;3.58;34.12;99958.84;1711786;82;21149;-42
2021/03/23 10:21:10;;;;;;;6.45;1.20;;;;;;;3.40;33.53;99964.34;1679500;83;21140;-43
2021/03/23 10:23:55;;;;;;;3.17;0.40;;;;;;;3.31;34.17;99962.92;1678749;83;21190;-42
2021/03/23 10:26:25;;;;;;;1.87;0.80;;;;;;;3.30;34.27;99962.97;1669457;84;21136;-44
2021/03/23 10:29:11;;;;;;;3.20;1.02;;;;;;;3.35;35.55;99963.66;1670298;84;21487;-44
2021/03/23 10:31:44;;;;;;;2.00;0.55;;;;;;;3.43;34.29;99965.11;1671390;84;21169;-42
2021/03/23 10:34:30;;;;;;;1.25;0.50;;;;;;;3.47;35.37;99955.30;1657911;85;21189;-41
2021/03/23 10:37:02;;;;;;;3.12;1.00;;;;;;;3.29;35.95;99964.75;1654225;85;21127;-41
2021/03/23 10:39:45;;;;;;;1.20;0.60;;;;;;;3.22;37.47;99962.79;1799265;78;23104;-43
2021/03/23 10:42:58;;;;;;;3.00;1.50;;;;;;;3.16;35.02;99966.12;1769912;79;21150;-43
2021/03/23 10:46:31;;;;;;;0.60;0.50;;;;;;;3.17;34.53;99975.73;1738175;81;21320;-44
2021/03/23 10:49:26;;;;;;;3.10;1.05;;;;;;;3.24;35.61;99968.87;1737375;81;21161;-46
2021/03/23 10:52:01;;;;;;;3.52;0.98;;;;;;;3.31;34.44;99968.66;1734064;81;21141;-47
2021/03/23 10:54:34;;;;;;;2.22;1.10;;;;;;;3.36;34.22;99964.08;1738479;81;21604;-46
2021/03/23 10:57:27;;;;;;;0.95;0.60;;;;;;;3.42;34.89;99971.28;1738243;81;21150;-45
2021/03/23 11:00:21;;;;;;;2.30;0.95;;;;;;;3.48;33.98;99959.67;1811298;77;22099;-47
2021/03/23 11:02:48;;;;;;;1.10;0.33;;;;;;;3.40;35.11;99974.89;1751596;80;21140;-46
2021/03/23 11:05:20;;;;;;;1.92;0.75;;;;;;;3.31;37.22;99981.84;1773210;80;21552;-46
2021/03/23 11:08:00;;;;;;;2.62;0.35;;;;;;;3.14;37.24;99983.76;1774241;80;21105;-46
2021/03/23 11:10:31;;;;;;;3.25;0.47;;;;;;;3.04;38.14;99991.13;1776824;79;21153;-44
2021/03/23 11:12:59;;;;;;;1.60;0.70;;;;;;;2.98;38.81;99988.72;1753779;80;21318;-46
2021/03/23 11:15:36;;;;;;;2.72;1.00;;;;;;;3.02;38.35;99988.99;1753402;80;21179;-47
2021/03/23 11:18:01;;;;;;;2.33;0.70;;;;;;;3.10;39.03;99993.99;1754712;80;21131;-48
2021/03/23 11:20:36;;;;;;;1.72;0.60;;;;;;;3.13;39.80;99989.49;1749996;80;21605;-46
2021/03/23 11:23:42;;;;;;;1.67;0.70;;;;;;;3.15;39.88;99985.03;1751830;80;21663;-44
2021/03/23 11:26:09;;;;;;;3.15;1.02;;;;;;;3.25;40.14;99978.95;1729789;81;21154;-45
2021/03/23 11:28:38;;;;;;;1.02;0.65;;;;;;;3.39;39.38;99981.95;1739703;81;21145;-45
2021/03/23 11:31:07;;;;;;;2.12;0.68;;;;;;;3.43;39.07;99982.71;1736773;81;21134;-44
2021/03/23 11:33:34;;;;;;;1.40;0.85;;;;;;;3.48;39.62;99976.81;1745187;81;21194;-44
2021/03/23 11:36:04;;;;;;;2.58;0.70;;;;;;;3.57;40.84;99977.77;1740855;81;21358;-45
2021/03/23 11:38:33;;;;;;;1.67;0.82;;;;;;;3.67;41.68;99980.92;1733977;81;21152;-44
2021/03/23 11:41:01;;;;;;;1.82;0.82;;;;;;;3.66;41.80;99982.70;1729346;81;21165;-43
2021/03/23 11:43:45;;;;;;;2.47;0.70;;;;;;;3.59;42.10;99997.50;1742295;81;21157;-43
2021/03/23 11:46:30;;;;;;;3.77;2.10;;;;;;;3.44;48.86;100004.19;1751912;80;21172;-44
2021/03/23 11:49:08;;;;;;;4.42;0.72;;;;;;;2.85;54.65;100030.42;1754661;80;21143;-45
2021/03/23 11:51:36;;;;;;;3.70;0.75;;;;;;;2.08;67.66;100022.81;1726831;80;22075;-45
2021/03/23 11:54:05;;;;;;;4.42;0.75;;;;;;;1.49;71.00;100031.58;1755387;80;21153;-44
2021/03/23 11:56:33;;;;;;;1.20;0.40;;;;;;;1.32;66.60;100024.16;1748557;80;21173;-45
2021/03/23 11:59:03;;;;;;;1.37;0.65;;;;;;;1.08;62.43;100026.56;1742814;80;21165;-44
2021/03/23 12:01:31;;;;;;;2.50;0.60;;;;;;;1.07;63.28;100029.21;1730513;81;21182;-49
2021/03/23 12:04:00;;;;;;;1.07;0.60;;;;;;;1.06;62.85;100024.42;1729446;81;21153;-47
2021/03/23 12:06:38;;;;;;;1.92;0.70;;;;;;;1.05;61.53;100023.13;1735065;81;21178;-47
2021/03/23 12:09:20;;;;;;;1.67;0.70;;;;;;;1.13;60.25;100022.47;1801587;78;23129;-49
2021/03/23 12:12:05;;;;;;;4.55;1.07;;;;;;;1.20;60.67;100024.48;1762889;79;21200;-45
2021/03/23 12:14:45;;;;;;;1.85;0.90;;;;;;;1.39;58.64;100017.83;1750562;80;21539;-44
2021/03/23 12:17:25;;;;;;;1.95;1.00;;;;;;;1.67;55.85;100016.58;1802245;78;23191;-43
2021/03/23 12:19:56;;;;;;;6.58;1.70;;;;;;;1.82;55.04;100012.64;1776127;80;21153;-46
2021/03/23 12:22:25;;;;;;;6.28;1.90;;;;;;;2.02;54.85;100019.08;1775450;79;21129;-44
2021/03/23 12:24:54;;;;;;;3.80;1.50;;;;;;;2.15;54.13;100008.57;1782882;79;21129;-44
2021/03/23 12:27:22;;;;;;;7.15;2.05;;;;;;;2.33;50.87;100030.34;1775743;79;21149;-44
2021/03/23 12:29:51;;;;;;;5.60;2.20;;;;;;;2.47;50.05;100017.19;1776417;79;21161;-44
2021/03/23 12:32:27;;;;;;;3.95;1.27;;;;;;;2.57;50.65;100010.71;1774492;79;21563;-48
2021/03/23 12:34:56;;;;;;;1.62;0.40;;;;;;;2.39;52.86;100029.28;1748506;80;21664;-43
2021/03/23 12:37:23;;;;;;;1.25;0.75;;;;;;;2.07;53.21;100034.27;1749380;80;21186;-44